createdAt,value
2018-06-05T00:02:18.320Z,12.20
2018-06-05T00:04:53.915Z,12.10
2018-06-05T00:07:29.924Z,11.63
2018-06-05T00:10:05.778Z,12.87
2018-06-05T00:12:41.006Z,12.57
2018-06-05T00:15:16.669Z,11.33
2018-06-05T00:17:52.834Z,11.03
2018-06-05T00:20:40.460Z,13.13
2018-06-05T00:23:18.381Z,11.77
2018-06-05T00:25:53.238Z,11.83
2018-06-05T00:28:28.582Z,10.53
2018-06-05T00:31:04.487Z,11.03
2018-06-05T00:33:39.666Z,10.60
2018-06-05T00:36:15.127Z,11.10
2018-06-05T00:38:52.560Z,11.77
2018-06-05T00:41:28.216Z,12.47
2018-06-05T00:44:04.479Z,11.47
2018-06-05T00:46:46.799Z,10.63
2018-06-05T00:49:23.032Z,11.53
2018-06-05T00:52:06.887Z,10.90
2018-06-05T00:54:42.824Z,10.47
2018-06-05T00:57:18.267Z,9.17
2018-06-05T00:59:53.947Z,10.50
2018-06-05T01:02:29.898Z,10.07
2018-06-05T01:05:05.657Z,10.40
2018-06-05T01:07:40.903Z,9.27
2018-06-05T01:10:18.963Z,9.53
2018-06-05T01:12:54.201Z,9.67
2018-06-05T01:15:29.475Z,10.00
2018-06-05T01:18:05.399Z,7.57
2018-06-05T01:20:40.294Z,10.03
2018-06-05T01:23:16.220Z,10.43
2018-06-05T01:25:51.683Z,10.67
2018-06-05T01:28:26.960Z,10.77
2018-06-05T01:31:02.236Z,11.07
2018-06-05T01:33:37.794Z,12.07
2018-06-05T01:36:13.290Z,12.07
2018-06-05T01:38:50.048Z,12.23
2018-06-05T01:41:25.358Z,11.97
2018-06-05T01:44:00.747Z,11.77
2018-06-05T01:46:35.915Z,13.27
2018-06-05T01:49:12.520Z,11.90
2018-06-05T01:51:47.825Z,12.07
2018-06-05T01:54:23.197Z,10.53
2018-06-05T01:56:58.436Z,11.83
2018-06-05T01:59:34.261Z,11.60
2018-06-05T02:02:10.727Z,11.20
2018-06-05T02:04:47.332Z,11.83
2018-06-05T02:07:34.044Z,11.57
2018-06-05T02:10:09.588Z,11.90
2018-06-05T02:12:45.338Z,11.57
2018-06-05T02:15:21.590Z,11.90
2018-06-05T02:17:57.667Z,12.17
2018-06-05T02:20:33.244Z,12.77
2018-06-05T02:23:09.268Z,12.60
2018-06-05T02:25:44.815Z,12.97
2018-06-05T02:28:20.669Z,13.17
2018-06-05T02:30:56.903Z,12.70
2018-06-05T02:33:33.054Z,13.97
2018-06-05T02:36:09.188Z,14.50
2018-06-05T02:38:45.181Z,13.63
2018-06-05T02:41:21.276Z,14.83
2018-06-05T02:43:57.537Z,14.17
2018-06-05T02:46:33.905Z,13.83
2018-06-05T02:49:09.345Z,13.80
2018-06-05T02:51:45.096Z,14.23
2018-06-05T02:54:21.152Z,13.00
2018-06-05T02:56:57.313Z,12.87
2018-06-05T02:59:37.670Z,13.03
2018-06-05T03:02:14.241Z,11.87
2018-06-05T03:13:08.871Z,12.57
2018-06-05T03:15:44.631Z,12.37
2018-06-05T03:18:21.065Z,12.23
2018-06-05T03:20:56.773Z,11.07
2018-06-05T03:23:32.802Z,11.37
2018-06-05T03:26:08.584Z,11.13
2018-06-05T03:28:44.027Z,10.73
2018-06-05T03:31:19.746Z,11.90
2018-06-05T03:33:55.910Z,12.37
2018-06-05T03:36:31.399Z,13.27
2018-06-05T03:39:08.634Z,13.40
2018-06-05T03:41:45.618Z,13.10
2018-06-05T03:44:20.861Z,13.27
2018-06-05T03:46:59.479Z,12.53
2018-06-05T03:49:41.205Z,13.67
2018-06-05T03:52:16.908Z,13.53
2018-06-05T03:54:54.246Z,15.13
2018-06-05T04:10:42.992Z,13.43
2018-06-05T04:14:44.797Z,13.37
2018-06-05T04:17:32.428Z,14.70
2018-06-05T04:20:09.267Z,14.53
2018-06-05T04:29:22.438Z,13.10
2018-06-05T04:31:58.906Z,12.50
2018-06-05T04:35:00.571Z,12.30
2018-06-05T09:34:34.329Z,8.60
2018-06-05T09:37:08.948Z,8.23
2018-06-05T09:39:43.786Z,8.70
2018-06-05T09:42:19.199Z,9.37
2018-06-05T09:44:54.327Z,9.33
2018-06-05T09:47:29.126Z,9.47
2018-06-05T09:50:04.065Z,8.97
2018-06-05T09:52:39.204Z,9.70
2018-06-05T09:55:13.926Z,9.83
2018-06-05T09:57:48.720Z,8.57
2018-06-05T10:00:28.619Z,9.63
2018-06-05T10:03:03.390Z,9.10
2018-06-05T10:05:38.233Z,9.90
2018-06-05T10:08:13.087Z,9.43
2018-06-05T10:10:47.809Z,9.27
2018-06-05T10:13:22.666Z,9.00
2018-06-05T10:15:57.458Z,10.17
2018-06-05T10:18:32.282Z,9.37
2018-06-05T10:21:07.300Z,9.07
2018-06-05T10:23:42.369Z,8.43
2018-06-05T10:26:17.034Z,9.00
2018-06-05T10:28:51.869Z,7.57
2018-06-05T10:31:26.789Z,6.27
2018-06-05T10:34:02.507Z,6.23
2018-06-05T10:36:37.367Z,6.20
2018-06-05T10:39:12.037Z,6.30
2018-06-05T10:41:46.897Z,5.43
2018-06-05T10:44:21.837Z,5.30
2018-06-05T10:46:56.683Z,5.40
2018-06-05T10:49:31.962Z,4.90
2018-06-05T10:52:06.896Z,5.47
2018-06-05T10:54:41.692Z,4.80
2018-06-05T10:57:16.574Z,4.83
2018-06-05T10:59:51.535Z,5.40
2018-06-05T11:02:26.383Z,4.97
2018-06-05T11:05:01.284Z,5.33
2018-06-05T11:07:36.054Z,4.60
2018-06-05T11:10:11.444Z,4.90
2018-06-05T11:12:46.054Z,5.37
2018-06-05T11:15:20.822Z,4.90
2018-06-05T11:17:55.590Z,4.73
2018-06-05T11:20:30.385Z,5.17
2018-06-05T11:23:05.253Z,4.67
2018-06-05T11:25:39.900Z,4.43
2018-06-05T11:28:15.112Z,4.67
2018-06-05T11:30:49.862Z,4.60
2018-06-05T11:33:24.731Z,4.70
2018-06-05T11:35:59.397Z,3.93
2018-06-05T11:38:34.435Z,4.40
2018-06-05T11:41:09.224Z,4.17
2018-06-05T11:43:43.989Z,4.77
2018-06-05T11:46:19.307Z,4.90
2018-06-05T11:48:54.612Z,4.30
2018-06-05T11:51:29.485Z,4.90
2018-06-05T11:54:04.880Z,4.87
2018-06-05T11:56:39.651Z,4.73
2018-06-05T11:59:14.453Z,4.90
2018-06-05T12:01:49.340Z,4.63
2018-06-05T12:04:24.010Z,4.57
2018-06-05T12:06:58.730Z,4.83
2018-06-05T12:09:33.500Z,4.63
2018-06-05T12:12:08.318Z,4.10
2018-06-05T12:14:43.250Z,5.10
2018-06-05T12:17:17.975Z,4.37
2018-06-05T12:19:52.687Z,4.67
2018-06-05T12:22:27.245Z,5.10
2018-06-05T12:25:02.057Z,4.20
2018-06-05T12:27:36.812Z,4.67
2018-06-05T12:30:11.714Z,5.00
2018-06-05T12:32:46.525Z,4.40
2018-06-05T12:35:21.448Z,4.10
2018-06-05T12:37:56.355Z,4.30
2018-06-05T12:40:31.234Z,4.10
2018-06-05T12:43:06.072Z,4.13
2018-06-05T12:45:40.902Z,4.10
2018-06-05T12:48:15.623Z,4.20
2018-06-05T12:50:50.368Z,4.53
2018-06-05T12:53:24.977Z,4.60
2018-06-05T12:56:00.334Z,4.50
2018-06-05T12:58:34.948Z,4.40
2018-06-05T13:01:09.822Z,5.43
2018-06-05T13:03:44.470Z,4.80
2018-06-05T13:06:19.344Z,4.33
2018-06-05T13:08:54.124Z,4.80
2018-06-05T13:11:29.499Z,4.73
2018-06-05T13:14:04.495Z,4.40
2018-06-05T13:16:39.152Z,4.33
2018-06-05T13:19:14.186Z,5.17
2018-06-05T13:21:49.073Z,4.90
2018-06-05T13:24:23.761Z,4.23
2018-06-05T13:27:03.675Z,4.27
2018-06-05T13:29:38.441Z,4.70
2018-06-05T13:32:13.317Z,5.10
2018-06-05T13:34:48.184Z,4.60
2018-06-05T13:37:22.976Z,4.97
2018-06-05T13:39:57.725Z,4.40
2018-06-05T13:42:32.846Z,3.93
2018-06-05T13:45:07.769Z,5.53
2018-06-05T13:47:42.909Z,4.90
2018-06-05T13:50:17.731Z,4.87
2018-06-05T13:52:52.553Z,5.40
2018-06-05T13:55:27.102Z,5.43
2018-06-05T13:58:01.897Z,5.30
2018-06-05T14:00:36.628Z,5.20
2018-06-05T14:03:11.484Z,6.00
2018-06-05T14:05:46.388Z,4.93
2018-06-05T14:08:21.192Z,5.10
2018-06-05T14:10:56.087Z,4.70
2018-06-05T14:13:30.800Z,5.20
2018-06-05T14:16:06.043Z,5.40
2018-06-05T14:18:40.857Z,5.70
2018-06-05T14:21:15.533Z,5.30
2018-06-05T14:23:50.564Z,5.90
2018-06-05T14:26:25.453Z,5.30
2018-06-05T14:29:00.445Z,5.83
2018-06-05T14:31:35.061Z,6.13
2018-06-05T14:34:09.917Z,5.67
2018-06-05T14:36:44.798Z,5.90
2018-06-05T14:39:19.403Z,6.27
2018-06-05T14:41:54.026Z,5.53
2018-06-05T14:44:29.082Z,5.40
2018-06-05T14:47:03.775Z,5.90
2018-06-05T14:49:38.788Z,6.10
2018-06-05T14:52:13.433Z,6.07
2018-06-05T14:54:48.280Z,6.30
2018-06-05T14:57:24.612Z,5.83
2018-06-05T14:59:59.441Z,6.17
2018-06-05T15:02:34.139Z,5.57
2018-06-05T15:05:08.987Z,5.57
2018-06-05T15:07:43.371Z,5.53
2018-06-05T15:10:18.973Z,5.63
2018-06-05T15:12:53.766Z,5.90
2018-06-05T15:15:28.626Z,6.43
2018-06-05T15:18:03.591Z,5.83
2018-06-05T15:20:38.375Z,5.53
2018-06-05T15:23:13.064Z,6.73
2018-06-05T15:25:48.565Z,6.47
2018-06-05T15:28:23.474Z,6.50
2018-06-05T15:30:58.996Z,5.63
2018-06-05T15:33:34.354Z,6.07
2018-06-05T15:36:09.138Z,5.73
2018-06-05T15:38:44.063Z,5.43
2018-06-05T15:41:18.978Z,6.20
2018-06-05T15:43:53.809Z,6.37
2018-06-05T15:46:28.549Z,5.17
2018-06-05T15:49:03.180Z,6.27
2018-06-05T15:51:37.978Z,6.00
2018-06-05T15:54:13.004Z,6.27
2018-06-05T15:56:47.577Z,6.10
2018-06-05T15:59:22.232Z,5.43
2018-06-05T16:01:56.804Z,6.00
2018-06-05T16:04:31.704Z,5.90
2018-06-05T16:07:06.815Z,6.20
2018-06-05T16:09:41.497Z,6.77
2018-06-05T16:12:16.121Z,5.50
2018-06-05T16:14:51.024Z,6.40
2018-06-05T16:17:25.947Z,5.67
2018-06-05T16:20:00.853Z,5.83
2018-06-05T16:22:35.585Z,5.40
2018-06-05T16:25:10.368Z,5.40
2018-06-05T16:27:45.358Z,5.60
2018-06-05T16:30:20.259Z,5.80
2018-06-05T16:32:55.223Z,5.13
2018-06-05T16:35:30.066Z,4.87
2018-06-05T16:38:04.977Z,6.63
2018-06-05T16:40:39.759Z,5.30
2018-06-05T16:43:14.590Z,5.70
2018-06-05T16:45:49.533Z,5.30
2018-06-05T16:48:24.309Z,5.40
2018-06-05T16:50:59.091Z,5.87
2018-06-05T16:53:33.893Z,5.30
2018-06-05T16:56:09.032Z,5.67
2018-06-05T16:58:44.772Z,6.20
2018-06-05T17:01:26.126Z,5.97
2018-06-05T17:04:01.409Z,5.60
2018-06-05T17:06:36.382Z,6.13
2018-06-05T17:09:11.146Z,5.27
2018-06-05T17:11:45.789Z,4.47
2018-06-05T17:14:20.625Z,4.90
2018-06-05T17:16:55.702Z,5.47
2018-06-05T17:19:31.578Z,5.37
2018-06-05T17:22:06.491Z,5.93
2018-06-05T17:24:41.279Z,5.53
2018-06-05T17:27:16.350Z,5.30
2018-06-05T17:29:51.193Z,5.37
2018-06-05T17:32:26.011Z,5.23
2018-06-05T17:35:00.825Z,5.33
2018-06-05T17:37:35.550Z,5.60
2018-06-05T17:40:10.372Z,5.23
2018-06-05T18:48:08.550Z,5.03
2018-06-05T18:50:44.114Z,5.57
2018-06-05T18:53:19.597Z,4.87
2018-06-05T18:55:54.944Z,4.73
2018-06-05T18:58:30.419Z,5.03
2018-06-05T19:01:05.575Z,5.40
2018-06-05T19:03:40.998Z,4.90
2018-06-05T19:15:56.695Z,5.07
2018-06-05T19:18:32.239Z,5.03
2018-06-05T19:21:07.700Z,5.20
2018-06-05T19:23:43.677Z,5.23
2018-06-05T19:26:19.433Z,5.03
2018-06-05T19:28:54.877Z,5.10
2018-06-05T19:31:30.691Z,5.47
2018-06-05T19:34:06.089Z,5.83
2018-06-05T19:36:41.808Z,5.53
2018-06-05T19:39:17.415Z,5.13
2018-06-05T19:41:52.715Z,5.53
2018-06-05T19:44:28.022Z,5.53
2018-06-05T19:47:03.629Z,5.50
2018-06-05T19:49:39.245Z,5.53
2018-06-05T19:52:14.826Z,4.53
2018-06-05T19:54:50.332Z,4.47
2018-06-05T19:57:25.880Z,5.10
2018-06-05T20:00:01.480Z,5.07
2018-06-05T20:02:37.321Z,5.60
2018-06-05T20:05:12.600Z,5.73
2018-06-05T20:07:48.115Z,4.80
2018-06-05T20:10:23.631Z,5.10
2018-06-05T20:12:58.801Z,5.67
2018-06-05T20:15:34.469Z,5.63
2018-06-05T20:18:10.193Z,5.63
2018-06-05T20:20:45.279Z,6.63
2018-06-05T20:51:59.057Z,5.37
2018-06-05T20:54:34.452Z,5.57
2018-06-05T20:57:10.567Z,5.67
2018-06-05T20:59:46.354Z,5.83
2018-06-05T21:02:21.781Z,5.20
2018-06-05T21:04:57.053Z,3.37
2018-06-05T21:07:32.917Z,2.67
2018-06-05T21:10:08.038Z,2.33
2018-06-05T21:12:43.550Z,1.77
2018-06-05T21:15:19.226Z,1.20
2018-06-05T21:17:54.673Z,1.33
2018-06-05T21:20:30.113Z,1.20
2018-06-05T21:23:05.836Z,1.53
2018-06-05T21:25:41.090Z,1.43
2018-06-05T21:28:16.241Z,4.97
2018-06-05T21:30:51.598Z,4.00
2018-06-05T21:33:26.996Z,3.47
2018-06-05T21:36:02.503Z,2.27
2018-06-05T21:38:37.671Z,4.27
2018-06-05T21:41:13.391Z,3.33
2018-06-05T21:49:50.544Z,0.77
2018-06-05T21:52:25.858Z,0.60
2018-06-05T21:55:00.890Z,0.40
2018-06-05T21:57:36.071Z,4.57
2018-06-05T22:00:11.115Z,4.30
2018-06-05T22:02:51.188Z,4.10
2018-06-05T22:27:42.822Z,4.00
2018-06-05T22:30:17.615Z,4.37
2018-06-05T22:32:52.601Z,4.70
2018-06-05T22:35:27.341Z,4.57
2018-06-05T22:38:02.166Z,4.67
2018-06-05T22:40:37.601Z,4.80
2018-06-05T22:43:12.469Z,4.53
2018-06-05T22:45:47.349Z,4.50
2018-06-05T22:48:21.946Z,4.90
2018-06-05T22:50:56.651Z,4.30
2018-06-05T22:53:31.372Z,4.70
2018-06-05T22:56:06.142Z,4.40
2018-06-05T22:58:40.987Z,3.77
2018-06-05T23:01:15.659Z,4.37
2018-06-05T23:03:50.900Z,4.13
2018-06-05T23:06:25.560Z,3.60
2018-06-05T23:09:00.628Z,3.93
2018-06-05T23:11:35.713Z,4.03
2018-06-05T23:14:10.429Z,4.37
2018-06-05T23:16:45.166Z,4.00
2018-06-05T23:19:19.895Z,4.07
2018-06-05T23:21:54.614Z,4.37
2018-06-05T23:24:29.400Z,3.97
2018-06-05T23:27:04.176Z,3.77
2018-06-05T23:29:38.949Z,3.63
2018-06-05T23:32:13.817Z,4.10
2018-06-05T23:34:48.758Z,4.27
2018-06-05T23:37:23.430Z,3.87
2018-06-05T23:39:58.262Z,4.40
2018-06-05T23:42:33.123Z,4.10
2018-06-05T23:45:08.046Z,3.80
2018-06-05T23:47:43.027Z,3.93
2018-06-05T23:50:17.660Z,3.80
2018-06-05T23:52:52.404Z,4.63
2018-06-05T23:55:27.350Z,4.13
2018-06-05T23:58:01.998Z,3.63
